WetterOnline ( https://www.wetteronline.de )

Wetter aktuell Kleiner Feldberg

Aktuelles Wetter: Kleiner Feldberg (826m)

6-stündlich | Neueste Meldungen
Ortszeit Temperatur Wetter
So, 14.04. 14:00 14.3° C wolkig
So, 14.04. 8:00 8.9° C wolkig
So, 14.04. 2:00 13.6° C wolkig
Sa, 13.04. 20:00 14.7° C wolkig
Sa, 13.04. 14:00 16.9° C wolkig
Sa, 13.04. 8:00 11.0° C wolkig
Sa, 13.04. 2:00 10.4° C bedeckt
Fr, 12.04. 20:00 10.8° C bedeckt
Ortszeit Temperatur Wetter
So, 14.04. 17:00 14.6° C wolkig
So, 14.04. 16:50 14.6° C bedeckt
So, 14.04. 16:40 14.7° C bedeckt
So, 14.04. 16:30 14.8° C bedeckt
So, 14.04. 16:20 14.8° C bedeckt
So, 14.04. 16:10 14.7° C bedeckt
So, 14.04. 16:00 14.8° C wolkig
So, 14.04. 15:30 15.3° C bedeckt
So, 14.04. 15:00 14.5° C wolkig
So, 14.04. 14:30 13.9° C wolkig
So, 14.04. 14:00 14.3° C wolkig
Ortszeit Relative Feuchte Sichtweite
So, 14.04. 14:00 59% >70 km
So, 14.04. 8:00 74% 55 km
So, 14.04. 2:00 76% 55 km
Sa, 13.04. 20:00 77% 45 km
Sa, 13.04. 14:00 63% 65 km
Sa, 13.04. 8:00 90% 27 km
Sa, 13.04. 2:00 89% 40 km
Fr, 12.04. 20:00 85% 50 km
Ortszeit Relative Feuchte Sichtweite
So, 14.04. 17:00 62% 55 km
So, 14.04. 16:50 62% -
So, 14.04. 16:40 62% -
So, 14.04. 16:30 60% 55 km
So, 14.04. 16:20 60% -
So, 14.04. 16:10 62% -
So, 14.04. 16:00 62% 50 km
So, 14.04. 15:30 62% 55 km
So, 14.04. 15:00 60% 35 km
So, 14.04. 14:30 60% 45 km
So, 14.04. 14:00 59% >70 km
Ortszeit Niederschlagsmenge Niederschlagsart
So, 14.04. 14:00 0.0 l/m2 in 6 Std. -
So, 14.04. 8:00 0.0 l/m2 in 12 Std. -
So, 14.04. 2:00 0.0 l/m2 in 6 Std. -
Sa, 13.04. 20:00 0.0 l/m2 in 12 Std. -
Sa, 13.04. 14:00 0.0 l/m2 in 6 Std. -
Sa, 13.04. 8:00 0.0 l/m2 in 12 Std. -
Sa, 13.04. 2:00 0.0 l/m2 in 6 Std. -
Fr, 12.04. 20:00 0.0 l/m2 in 12 Std. -
Ortszeit Niederschlagsmenge Niederschlagsart
So, 14.04. 17:00 0.0 l/m2 in 1 Std. -
So, 14.04. 16:50 keine Meldung -
So, 14.04. 16:40 keine Meldung -
So, 14.04. 16:30 0.0 l/m2 in 30 Min -
So, 14.04. 16:20 keine Meldung -
So, 14.04. 16:10 keine Meldung -
So, 14.04. 16:00 0.0 l/m2 in 1 Std. -
So, 14.04. 15:30 0.0 l/m2 in 30 Min -
So, 14.04. 15:00 0.0 l/m2 in 1 Std. -
So, 14.04. 14:30 0.0 l/m2 in 30 Min -
So, 14.04. 14:00 0.0 l/m2 in 1 Std. -
Ortszeit Stärke Spitze Richtung
km/h Bft. km/h Grad Sektor
So, 14.04. 14:00 11 2 32 300° NW
So, 14.04. 8:00 13 3 39 310° NW
So, 14.04. 2:00 14 3 36 290° W
Sa, 13.04. 20:00 17 3 31 190° S
Sa, 13.04. 14:00 9 2 28 210° SW
Sa, 13.04. 8:00 7 2 25 280° W
Sa, 13.04. 2:00 11 2 25 290° W
Fr, 12.04. 20:00 7 2 25 300° NW
Ortszeit Stärke Spitze Richtung
km/h Bft. km/h Grad Sektor
So, 14.04. 17:00 9 2 20 290° W
So, 14.04. 16:50 9 2 - 290° W
So, 14.04. 16:40 7 2 - 310° NW
So, 14.04. 16:30 7 2 22 290° W
So, 14.04. 16:20 7 2 - 290° W
So, 14.04. 16:10 11 2 - 290° W
So, 14.04. 16:00 11 2 25 290° W
So, 14.04. 15:30 9 2 22 280° W
So, 14.04. 15:00 9 2 30 280° W
So, 14.04. 14:30 11 2 29 290° W
So, 14.04. 14:00 11 2 32 300° NW
Ortszeit Untergrenze Bedeckung Gattung
total tief tief mittel hoch
So, 14.04. 14:00 810 m 7/8 2/8 - - -
So, 14.04. 8:00 6600 m 8/8 1/8 - - -
So, 14.04. 2:00 9000 m 8/8 0/8 - - -
Sa, 13.04. 20:00 8100 m 8/8 0/8 - - -
Sa, 13.04. 14:00 6600 m 8/8 8/8 - - -
Sa, 13.04. 8:00 7500 m 7/8 0/8 - - -
Sa, 13.04. 2:00 6000 m 8/8 8/8 - - -
Fr, 12.04. 20:00 6000 m 8/8 8/8 - - -
Ortszeit Bedeckungsgrad in Achtel und Wolkenuntergrenze
So, 14.04. 17:00 8(5400m) 8(7500m) 8(8400m)
So, 14.04. 16:50 8(5400m) 8(7500m) 8(8400m)
So, 14.04. 16:40 8
So, 14.04. 16:30 8(5100m) 8(7500m)
So, 14.04. 16:20 8(5100m) 8(7500m)
So, 14.04. 16:10 8
So, 14.04. 16:00 8(5100m)
So, 14.04. 15:30 8(5100m)
So, 14.04. 15:00 8(5400m)
So, 14.04. 14:30 4(5700m) 5(7800m) 7(8700m)
So, 14.04. 14:00 2(810m) 7(8400m)
Ortszeit Stationsdruck (hPa) Tendenz (hPa in 3 Std.)
So, 14.04. 14:00 926 - 0,1
So, 14.04. 8:00 926 + 0,4
So, 14.04. 2:00 926 - 1,0
Sa, 13.04. 20:00 928 - 2,0
Sa, 13.04. 14:00 932 - 1,1
Sa, 13.04. 8:00 933 + 0,1
Sa, 13.04. 2:00 934 - 0,3
Fr, 12.04. 20:00 934 - 0,9
Ortszeit Stationsdruck (hPa) Tendenz (hPa in 3 Std.)
So, 14.04. 17:00 925 - 1,5
So, 14.04. 16:50 925 keine Meldung
So, 14.04. 16:40 925 keine Meldung
So, 14.04. 16:30 925 - 1,3
So, 14.04. 16:20 925 keine Meldung
So, 14.04. 16:10 925 keine Meldung
So, 14.04. 16:00 925 - 1,1
So, 14.04. 15:30 926 - 0,9
So, 14.04. 15:00 926 - 0,7
So, 14.04. 14:30 926 - 0,4
So, 14.04. 14:00 926 - 0,1
Ortszeit Schneehöhe (cm)
So, 14.04. 14:00 0
So, 14.04. 8:00 0
So, 14.04. 2:00 0
Sa, 13.04. 20:00 0
Sa, 13.04. 14:00 0
Sa, 13.04. 8:00 0
Sa, 13.04. 2:00 0
Fr, 12.04. 20:00 0
Ortszeit Schneehöhe (cm)
So, 14.04. 17:00 0
So, 14.04. 16:50 0
So, 14.04. 16:40 -
So, 14.04. 16:30 0
So, 14.04. 16:20 0
So, 14.04. 16:10 -
So, 14.04. 16:00 0
So, 14.04. 15:30 0
So, 14.04. 15:00 0
So, 14.04. 14:30 0
So, 14.04. 14:00 0
Link zu dieser Seite / Seite empfehlen

Das Wetter in ...